Airfield :
LOGIN :

Register | Disclaimer

   EN    FR    IT 

 










Legend :    VFR   Marginal VFR   IFR   Intensive IFR   Very Intensive IFR
Visi :
Ceiling :
>= 8 km
>= 3000ft
5 to 8 km
1000 to 3000 ft
1500m to 5 km
500 to 1000 ft
800 to 1500m
200 to 500 ft
< 800m
< 200 ft
Symbols :   Thunderstorms  Fog  Heavy snow  Heavy precipitations  Wind > 20 kt
SIGMETs :     Misc.  Thunderstorms  Icing  Turbulence  Mountain Waves  Volcanic Ashes







- Airport Elevation : 995 ft
- IATA code : KTW


EPKT - Katowice

CURRENT METAR :
  • 211500Z 32010KT 280V350 CAVOK 24/08 Q1015

EXPIRED METARs :
  • 211430Z 32010KT 290V350 CAVOK 24/08 Q1015
  • 211400Z 31011KT CAVOK 25/09 Q1016
  • 211330Z 31012KT 240V340 CAVOK 27/08 Q1016
  • 211300Z 27015KT 230V310 CAVOK 27/09 Q1016
  • 211230Z 26015KT 240V310 CAVOK 26/08 Q1016

TAF TAF EPKT
Valid from the 21 at 12:00 until the 22 at 12:00 UTC


211130Z 2112/2212 25013KT CAVOK
BECMG 2113/2115 32012KT
PROB40
TEMPO 2113/2117 BKN050TCU
BECMG 2121/2123 36002KT
No reported NOTAMs for that airfield.



MET'MAP, your aeronautical weather chart ! - Copyright ORBIFLY December 2007 - Disclaimer

ORBIFLY MET'MAP TEAM :

Programming & Development : Alexandra Zaïnal
Concept & Development : Baudouin d'Aumeries
Co-Development & Prog : Marc-Olivier Méhu
Technical & hardware support : Manuel Goepfert

Contact : metmap@orbifly.com




SOURCES & CREDITS :

   NOAA